Time;durP1;ratioP1;P1;durP2;ratioP2;P2;SDS_P1;SDS_P2;PMS_P1;PMS_P2;Temp;Humidity;BMP_temperature;BMP_pressure;BME280_temperature;BME280_humidity;BME280_pressure;Samples;Min_cycle;Max_cycle;Signal;HPM_P1;HPM_P2
2021/01/12 00:00:45;;;;;;;4.78;3.38;;;;;;;19.34;78.27;101522.19;5071640;28;20041;-73
2021/01/12 00:03:10;;;;;;;8.93;3.60;;;;;;;19.35;78.07;101518.59;5070832;28;20119;-72
2021/01/12 00:05:35;;;;;;;6.43;3.60;;;;;;;19.35;78.10;101518.59;5072806;28;20137;-73
2021/01/12 00:08:01;;;;;;;5.95;3.42;;;;;;;19.34;78.11;101517.72;5071896;28;20463;-73
2021/01/12 00:10:26;;;;;;;6.15;3.55;;;;;;;19.36;78.51;101515.03;5070383;28;20090;-73
2021/01/12 00:12:52;;;;;;;6.25;3.58;;;;;;;19.36;78.37;101515.03;5070290;28;20098;-73
2021/01/12 00:15:17;;;;;;;22.35;4.20;;;;;;;19.36;78.16;101504.31;5070484;28;20033;-73
2021/01/12 00:17:42;;;;;;;4.93;3.80;;;;;;;19.36;78.49;101504.31;5072198;28;20393;-73
2021/01/12 00:20:08;;;;;;;8.57;3.40;;;;;;;19.36;78.60;101501.63;5070673;28;20044;-73
2021/01/12 00:22:33;;;;;;;6.07;3.60;;;;;;;19.37;78.45;101498.03;5071431;28;20485;-72
2021/01/12 00:24:58;;;;;;;4.60;3.50;;;;;;;19.37;78.11;101490.00;5070803;28;20513;-73
2021/01/12 00:27:24;;;;;;;10.20;3.20;;;;;;;19.36;78.38;101488.25;5090147;28;20046;-73
2021/01/12 00:29:49;;;;;;;5.72;3.50;;;;;;;19.36;78.56;101477.53;5091586;28;20062;-73
2021/01/12 00:32:15;;;;;;;6.20;3.60;;;;;;;19.37;78.05;101474.81;5091528;28;20585;-73
2021/01/12 00:34:40;;;;;;;4.65;3.50;;;;;;;19.36;78.05;101473.03;5092141;28;20484;-73
2021/01/12 00:37:05;;;;;;;5.68;2.80;;;;;;;19.35;78.02;101482.00;5092243;28;20032;-73
2021/01/12 00:39:31;;;;;;;3.90;3.30;;;;;;;19.35;78.35;101470.41;5091437;28;20032;-73
2021/01/12 00:41:56;;;;;;;3.85;3.30;;;;;;;19.33;78.26;101462.38;5091460;28;20056;-73
2021/01/12 00:44:22;;;;;;;4.40;3.15;;;;;;;19.34;78.41;101456.13;5072976;28;20505;-73
2021/01/12 00:46:47;;;;;;;12.13;2.90;;;;;;;19.35;78.41;101455.22;5091305;28;20040;-72
2021/01/12 00:49:12;;;;;;;4.40;3.00;;;;;;;19.35;78.27;101449.88;5073335;28;20097;-74
2021/01/12 00:51:38;;;;;;;3.55;3.10;;;;;;;19.37;78.37;101436.44;5091245;28;20032;-73
2021/01/12 00:54:03;;;;;;;6.28;3.38;;;;;;;19.35;78.16;101435.59;5091480;28;20032;-73
2021/01/12 00:56:28;;;;;;;7.07;3.70;;;;;;;19.35;78.41;101424.88;5090622;28;20036;-73
2021/01/12 00:58:54;;;;;;;5.72;3.20;;;;;;;19.35;78.14;101428.44;5072781;28;20043;-73
2021/01/12 01:01:19;;;;;;;8.05;3.40;;;;;;;19.35;78.58;101424.88;5072877;28;20111;-73
2021/01/12 01:03:45;;;;;;;7.88;3.33;;;;;;;19.36;78.34;101408.78;5091314;28;20101;-72
2021/01/12 01:06:10;;;;;;;5.00;2.72;;;;;;;19.37;78.07;101415.00;5072765;28;20040;-72
2021/01/12 01:08:35;;;;;;;5.07;3.45;;;;;;;19.37;77.98;101417.69;5073213;28;20044;-72
2021/01/12 01:11:01;;;;;;;12.43;3.30;;;;;;;19.36;78.23;101424.84;5073057;28;20074;-73
2021/01/12 01:13:26;;;;;;;5.45;3.13;;;;;;;19.36;78.07;101421.31;5072119;28;20127;-73
2021/01/12 01:15:51;;;;;;;9.40;3.25;;;;;;;19.36;78.23;101418.63;5072969;28;20038;-72
2021/01/12 01:18:17;;;;;;;5.22;2.97;;;;;;;19.35;78.15;101417.72;5072137;28;20113;-72
2021/01/12 01:20:42;;;;;;;3.17;2.80;;;;;;;19.36;78.20;101419.47;5090900;28;20040;-72
2021/01/12 01:23:07;;;;;;;4.97;3.28;;;;;;;19.35;78.21;101412.38;5091081;28;20033;-71
2021/01/12 01:25:33;;;;;;;12.75;3.35;;;;;;;19.37;78.32;101409.66;5090096;28;20043;-72
2021/01/12 01:27:58;;;;;;;4.93;2.83;;;;;;;19.35;78.07;101412.38;5072345;28;20043;-71
2021/01/12 01:30:23;;;;;;;12.23;3.38;;;;;;;19.36;78.10;101408.78;5072575;28;20113;-74
2021/01/12 01:32:49;;;;;;;10.23;3.40;;;;;;;19.36;78.06;101406.09;5090512;28;20044;-72
2021/01/12 01:35:14;;;;;;;14.43;2.95;;;;;;;19.34;78.19;101386.50;5071255;28;20059;-72
2021/01/12 01:37:40;;;;;;;9.55;3.47;;;;;;;19.34;78.40;101397.22;5090942;28;20035;-71
2021/01/12 01:40:05;;;;;;;14.43;3.30;;;;;;;19.34;78.20;101393.63;5090719;28;20036;-72
2021/01/12 01:42:30;;;;;;;10.63;3.00;;;;;;;19.33;78.10;101392.75;5090556;28;20123;-72
2021/01/12 01:44:56;;;;;;;6.80;3.45;;;;;;;19.33;78.47;101389.19;5072234;28;20062;-72
2021/01/12 01:47:21;;;;;;;10.02;3.05;;;;;;;19.31;78.17;101374.91;5071913;28;20039;-72
2021/01/12 01:49:46;;;;;;;8.38;3.60;;;;;;;19.30;78.44;101374.03;5090860;28;20097;-72
2021/01/12 01:52:12;;;;;;;8.30;3.45;;;;;;;19.32;78.34;101379.38;5072384;28;20044;-72
2021/01/12 01:54:37;;;;;;;4.07;3.28;;;;;;;19.30;78.30;101374.03;5072503;28;20043;-72
2021/01/12 01:57:02;;;;;;;6.53;3.80;;;;;;;19.30;78.13;101378.50;5073012;28;20055;-74
2021/01/12 01:59:28;;;;;;;7.85;3.28;;;;;;;19.32;78.38;101365.97;5072191;28;20115;-72
2021/01/12 02:01:53;;;;;;;10.57;2.95;;;;;;;19.32;78.30;101377.59;5091089;28;20374;-72
2021/01/12 02:04:19;;;;;;;7.13;3.55;;;;;;;19.33;78.16;101375.78;5075168;28;20044;-72
2021/01/12 02:06:44;;;;;;;7.50;3.60;;;;;;;19.33;78.30;101370.44;5093487;28;20508;-71
2021/01/12 02:09:10;;;;;;;9.57;3.90;;;;;;;19.33;78.25;101379.38;5076478;28;20059;-72
2021/01/12 02:11:35;;;;;;;9.63;3.40;;;;;;;19.34;78.41;101372.22;5095145;28;20044;-72
2021/01/12 02:14:01;;;;;;;7.03;3.92;;;;;;;19.34;77.92;101372.22;5095036;28;20036;-73
2021/01/12 02:16:26;;;;;;;15.43;3.53;;;;;;;19.32;78.16;101382.94;5075645;28;20090;-72
2021/01/12 02:18:51;;;;;;;14.27;3.05;;;;;;;19.32;78.15;101379.38;5094947;28;20085;-73
2021/01/12 02:21:17;;;;;;;5.40;3.35;;;;;;;19.32;78.28;101365.97;5076433;28;20424;-72
2021/01/12 02:23:42;;;;;;;8.52;2.88;;;;;;;19.32;78.15;101358.84;5076586;28;20032;-72
2021/01/12 02:26:07;;;;;;;4.38;3.30;;;;;;;19.32;78.22;101353.50;5094076;28;20392;-72
2021/01/12 02:28:33;;;;;;;5.35;3.08;;;;;;;19.32;78.01;101364.19;5094408;28;20032;-72
2021/01/12 02:30:58;;;;;;;4.18;3.42;;;;;;;19.31;78.10;101364.22;5076681;28;20040;-73
2021/01/12 02:33:23;;;;;;;14.43;3.00;;;;;;;19.31;78.21;101370.44;5094336;28;20028;-73
2021/01/12 02:35:49;;;;;;;4.85;2.90;;;;;;;19.31;78.12;101356.16;5094413;28;20036;-73
2021/01/12 02:38:14;;;;;;;5.53;3.20;;;;;;;19.32;78.23;101365.97;5093107;28;20056;-73
2021/01/12 02:40:39;;;;;;;6.00;2.90;;;;;;;19.32;78.01;101357.94;5076144;28;20081;-75
2021/01/12 02:43:05;;;;;;;5.05;3.03;;;;;;;19.31;78.11;101357.06;5076156;28;20036;-73
2021/01/12 02:45:31;;;;;;;5.43;3.28;;;;;;;19.32;78.32;101347.25;5075233;28;20123;-74
2021/01/12 02:47:56;;;;;;;10.65;3.63;;;;;;;19.31;78.05;101337.44;5094444;28;20040;-73
2021/01/12 02:50:21;;;;;;;4.60;3.20;;;;;;;19.31;78.33;101327.59;5092713;28;20396;-74
2021/01/12 02:52:47;;;;;;;4.15;3.13;;;;;;;19.31;78.18;101324.94;5094604;28;20060;-73
2021/01/12 02:55:12;;;;;;;4.63;3.22;;;;;;;19.31;78.00;101326.72;5075208;28;20040;-74
2021/01/12 02:57:37;;;;;;;4.15;2.90;;;;;;;19.29;78.18;101324.09;5076109;28;20046;-73
2021/01/12 03:00:03;;;;;;;3.60;3.15;;;;;;;19.30;78.23;101314.22;5075913;28;20048;-73
2021/01/12 03:02:28;;;;;;;5.97;2.92;;;;;;;19.30;78.49;101328.50;5074679;28;20047;-73
2021/01/12 03:04:53;;;;;;;8.25;2.80;;;;;;;19.32;78.37;101315.13;5074537;28;20068;-73
2021/01/12 03:07:19;;;;;;;4.82;2.70;;;;;;;19.31;78.28;101305.31;5093034;28;20466;-73
2021/01/12 03:09:44;;;;;;;6.20;3.30;;;;;;;19.31;78.18;101307.97;5093336;28;20047;-72
2021/01/12 03:12:09;;;;;;;4.35;2.72;;;;;;;19.30;78.47;101290.13;5075557;28;20042;-72
2021/01/12 03:14:35;;;;;;;4.18;3.15;;;;;;;19.29;78.42;101289.28;5074373;28;20051;-73
2021/01/12 03:17:01;;;;;;;3.33;2.45;;;;;;;19.30;77.98;101274.06;5093803;28;20411;-73
2021/01/12 03:19:26;;;;;;;3.33;2.60;;;;;;;19.28;78.25;101279.47;5075161;28;20048;-72
2021/01/12 03:21:51;;;;;;;5.40;2.97;;;;;;;19.29;78.13;101272.31;5093527;28;20512;-72
2021/01/12 03:24:17;;;;;;;4.30;2.88;;;;;;;19.30;78.12;101288.34;5092269;28;20054;-72
2021/01/12 03:26:42;;;;;;;7.25;3.58;;;;;;;19.30;78.37;101293.69;5093257;28;20096;-73
2021/01/12 03:29:07;;;;;;;3.35;2.95;;;;;;;19.28;78.07;101276.78;5093471;28;20051;-73
2021/01/12 03:31:33;;;;;;;3.88;2.80;;;;;;;19.28;78.27;101263.41;5074835;28;20400;-73
2021/01/12 03:33:58;;;;;;;6.60;2.97;;;;;;;19.27;78.11;101275.03;5075102;28;20170;-73
2021/01/12 03:36:23;;;;;;;4.70;3.28;;;;;;;19.27;78.11;101275.03;5074814;28;20044;-73
2021/01/12 03:38:49;;;;;;;5.28;2.58;;;;;;;19.30;78.28;101274.06;5093380;28;20036;-73
2021/01/12 03:41:14;;;;;;;4.13;3.25;;;;;;;19.29;77.80;101259.84;5074940;28;20036;-72
2021/01/12 03:43:40;;;;;;;3.13;2.55;;;;;;;19.29;78.20;101277.69;5075091;28;20423;-74
2021/01/12 03:46:05;;;;;;;6.07;2.42;;;;;;;19.31;77.91;101276.75;5092976;28;20046;-73
2021/01/12 03:48:30;;;;;;;3.60;2.72;;;;;;;19.30;78.10;101274.06;5074362;28;20378;-72
2021/01/12 03:50:56;;;;;;;3.10;2.78;;;;;;;19.28;78.08;101263.41;5075190;28;20059;-72
2021/01/12 03:53:21;;;;;;;2.97;2.65;;;;;;;19.29;78.12;101256.25;5092870;28;20063;-72
2021/01/12 03:55:46;;;;;;;3.88;2.58;;;;;;;19.30;78.21;101268.72;5093319;28;20623;-72
2021/01/12 03:58:12;;;;;;;3.40;2.65;;;;;;;19.29;78.03;101281.25;5074258;28;20119;-72
2021/01/12 04:00:37;;;;;;;3.58;2.67;;;;;;;19.30;77.90;101263.38;5075003;28;20086;-72
2021/01/12 04:03:02;;;;;;;4.00;2.55;;;;;;;19.29;78.20;101265.19;5092634;28;20048;-72
2021/01/12 04:05:28;;;;;;;3.63;2.65;;;;;;;19.28;78.16;101271.44;5074266;28;20086;-73
2021/01/12 04:07:53;;;;;;;2.75;2.55;;;;;;;19.30;77.99;101279.44;5092860;28;20042;-72
2021/01/12 04:10:19;;;;;;;3.28;2.83;;;;;;;19.31;78.17;101278.53;5073388;28;20040;-73
2021/01/12 04:12:44;;;;;;;4.38;2.50;;;;;;;19.31;78.19;101278.53;5092018;28;20042;-73
2021/01/12 04:15:10;;;;;;;4.15;2.70;;;;;;;19.31;78.13;101268.72;5092256;28;20558;-73
2021/01/12 04:17:35;;;;;;;3.03;2.72;;;;;;;19.30;78.27;101266.94;5073583;28;20037;-72
2021/01/12 04:20:00;;;;;;;3.65;2.80;;;;;;;19.31;78.16;101270.50;5073965;28;20051;-72
2021/01/12 04:22:26;;;;;;;4.22;2.80;;;;;;;19.30;78.30;101263.38;5091555;28;20564;-73
2021/01/12 04:24:51;;;;;;;5.15;2.80;;;;;;;19.30;78.10;101261.56;5073491;28;20044;-73
2021/01/12 04:27:16;;;;;;;3.15;2.85;;;;;;;19.31;78.39;101282.09;5069286;28;20045;-73
2021/01/12 04:29:42;;;;;;;3.72;3.20;;;;;;;19.32;77.99;101278.50;5070821;28;20043;-73
2021/01/12 04:32:07;;;;;;;3.22;2.70;;;;;;;19.30;78.26;101282.09;5070446;28;20048;-73
2021/01/12 04:34:32;;;;;;;3.67;2.63;;;;;;;19.30;78.03;101279.44;5070945;28;20039;-73
2021/01/12 04:36:58;;;;;;;5.03;3.63;;;;;;;19.29;78.10;101269.66;5070614;28;20174;-74
2021/01/12 04:39:23;;;;;;;5.53;2.90;;;;;;;19.29;78.01;101278.56;5070916;28;20037;-73
2021/01/12 04:41:48;;;;;;;4.63;3.42;;;;;;;19.29;78.17;101273.22;5071556;28;20037;-74
2021/01/12 04:44:14;;;;;;;4.55;3.25;;;;;;;19.28;78.18;101258.06;5070176;28;20045;-73
2021/01/12 04:46:39;;;;;;;4.72;3.05;;;;;;;19.26;78.21;101249.16;5070245;28;20497;-73
2021/01/12 04:49:04;;;;;;;3.65;2.70;;;;;;;19.31;78.13;101270.50;5071823;28;20436;-74
2021/01/12 04:51:30;;;;;;;3.05;2.45;;;;;;;19.29;78.32;101269.66;5070961;28;20064;-72
2021/01/12 04:53:55;;;;;;;4.82;2.90;;;;;;;19.31;78.00;101265.13;5071600;28;20037;-73
2021/01/12 04:56:20;;;;;;;3.35;3.08;;;;;;;19.28;78.19;101266.09;5069657;28;20401;-73
2021/01/12 04:58:46;;;;;;;3.30;3.00;;;;;;;19.26;78.20;101254.50;5070156;28;20116;-73
2021/01/12 05:01:11;;;;;;;3.88;2.80;;;;;;;19.25;78.17;101275.94;5071053;28;20044;-73
2021/01/12 05:03:37;;;;;;;3.55;2.90;;;;;;;19.28;78.24;101265.19;5071124;28;20041;-72
2021/01/12 05:06:02;;;;;;;5.50;3.28;;;;;;;19.24;78.45;101275.03;5069675;28;20083;-72
2021/01/12 05:08:27;;;;;;;5.38;3.10;;;;;;;19.27;78.26;101288.41;5070224;28;20044;-73
2021/01/12 05:10:53;;;;;;;5.35;3.13;;;;;;;19.27;78.32;101282.16;5069691;28;20393;-72
2021/01/12 05:13:18;;;;;;;7.13;2.97;;;;;;;19.27;78.30;101282.16;5069085;28;20090;-73
2021/01/12 05:15:43;;;;;;;4.10;3.13;;;;;;;19.26;78.24;101293.78;5070805;28;20032;-71
2021/01/12 05:18:10;;;;;;;8.88;3.53;;;;;;;19.26;78.28;101278.59;5070879;28;20127;-71
2021/01/12 05:20:35;;;;;;;5.75;3.10;;;;;;;19.25;78.31;101268.78;5070784;28;20108;-72
2021/01/12 05:23:00;;;;;;;5.85;3.40;;;;;;;19.26;78.21;101264.31;5070997;28;20139;-72
2021/01/12 05:25:33;;;;;;;7.28;3.05;;;;;;;19.30;77.88;101261.56;5073161;28;20072;-71
2021/01/12 05:27:58;;;;;;;7.75;3.20;;;;;;;19.30;77.89;101252.66;5091014;28;20024;-71
2021/01/12 05:30:24;;;;;;;5.25;3.30;;;;;;;19.29;77.95;101248.22;5090880;28;20047;-72
2021/01/12 05:32:49;;;;;;;4.78;2.92;;;;;;;19.27;78.11;101247.34;5091055;28;20100;-72
2021/01/12 05:35:14;;;;;;;7.53;3.15;;;;;;;19.26;78.14;101234.88;5072369;28;20048;-72
2021/01/12 05:37:40;;;;;;;10.35;3.10;;;;;;;19.27;77.94;101239.31;5073048;28;20496;-72
2021/01/12 05:40:05;;;;;;;3.50;2.83;;;;;;;19.27;77.83;101263.41;5091130;28;20028;-72
2021/01/12 05:42:31;;;;;;;4.35;2.75;;;;;;;19.25;78.22;101255.41;5072452;28;20408;-71
2021/01/12 05:44:56;;;;;;;3.65;2.92;;;;;;;19.26;78.02;101251.81;5072726;28;20043;-72
2021/01/12 05:47:22;;;;;;;3.97;3.15;;;;;;;19.25;78.20;101255.41;5090629;28;20029;-72
2021/01/12 05:49:47;;;;;;;8.45;2.85;;;;;;;19.26;77.86;101245.56;5073445;28;20165;-72
2021/01/12 05:52:13;;;;;;;6.25;3.13;;;;;;;19.27;78.13;101260.75;5072671;28;20641;-72
2021/01/12 05:54:38;;;;;;;3.35;3.00;;;;;;;19.26;77.94;101254.50;5072635;28;20040;-72
2021/01/12 05:57:03;;;;;;;3.35;3.05;;;;;;;19.25;77.87;101258.06;5090831;28;20047;-71
2021/01/12 05:59:29;;;;;;;4.22;3.25;;;;;;;19.25;77.99;101260.75;5072463;28;20037;-71
2021/01/12 06:01:54;;;;;;;4.10;2.95;;;;;;;19.24;77.95;101242.03;5073171;28;20024;-72
2021/01/12 06:04:20;;;;;;;4.40;3.10;;;;;;;19.26;77.99;101240.22;5072792;28;20036;-71
2021/01/12 06:06:45;;;;;;;3.10;2.80;;;;;;;19.25;78.12;101254.50;5072478;28;20067;-71
2021/01/12 06:09:10;;;;;;;3.53;2.80;;;;;;;19.25;77.94;101247.38;5072703;28;20062;-71
2021/01/12 06:11:36;;;;;;;3.25;2.80;;;;;;;19.25;77.79;101241.13;5091166;28;20027;-72
2021/01/12 06:14:01;;;;;;;4.20;3.10;;;;;;;19.25;77.88;101239.34;5072410;28;20052;-73
2021/01/12 06:16:26;;;;;;;3.45;3.15;;;;;;;19.28;77.69;101247.34;5072920;28;20411;-73
2021/01/12 06:18:52;;;;;;;9.35;3.38;;;;;;;19.28;78.03;101241.09;5089863;28;20098;-73
2021/01/12 06:21:17;;;;;;;7.35;3.13;;;;;;;19.29;77.89;101242.88;5090372;28;20135;-73
2021/01/12 06:23:44;;;;;;;3.80;2.97;;;;;;;19.28;77.90;101239.31;5090432;28;20017;-73
2021/01/12 06:26:09;;;;;;;4.45;2.88;;;;;;;19.28;77.74;101231.28;5069143;28;20044;-74
2021/01/12 06:28:35;;;;;;;3.70;3.20;;;;;;;19.28;77.58;101223.25;5068398;28;20485;-73
2021/01/12 06:31:00;;;;;;;3.97;3.22;;;;;;;19.27;77.88;101207.19;5069174;28;20586;-73
2021/01/12 06:33:25;;;;;;;12.73;3.60;;;;;;;19.31;77.94;101219.63;5068845;28;20442;-72
2021/01/12 06:36:11;;;;;;;11.15;3.28;;;;;;;19.36;77.47;101228.50;5069090;28;20051;-73
2021/01/12 06:38:37;;;;;;;4.60;3.38;;;;;;;19.30;77.50;101223.19;5068255;28;20045;-73
2021/01/12 06:41:02;;;;;;;12.93;4.15;;;;;;;19.37;77.64;101216.88;5070017;28;20517;-72
2021/01/12 06:43:28;;;;;;;12.20;4.13;;;;;;;19.35;77.72;101216.03;5069613;28;20139;-71
2021/01/12 06:45:53;;;;;;;28.95;4.40;;;;;;;19.40;77.75;101208.81;5067161;28;20064;-73
2021/01/12 06:48:18;;;;;;;28.42;4.60;;;;;;;19.33;78.00;101199.09;5067435;28;20028;-72
2021/01/12 06:50:44;;;;;;;14.43;4.10;;;;;;;19.33;78.08;101208.00;5070526;28;20056;-73
2021/01/12 06:53:09;;;;;;;16.58;5.40;;;;;;;19.31;78.15;101193.75;5071845;28;20085;-73
2021/01/12 06:55:35;;;;;;;15.43;5.43;;;;;;;19.30;78.42;101202.66;5073031;28;20043;-72
2021/01/12 06:58:00;;;;;;;11.57;5.00;;;;;;;19.31;78.17;101185.72;5072813;28;20402;-73
2021/01/12 07:00:26;;;;;;;19.13;6.07;;;;;;;19.33;78.03;101183.91;5072274;28;20124;-72
2021/01/12 07:02:51;;;;;;;13.65;5.65;;;;;;;19.33;78.10;101188.38;5071258;28;20086;-72
2021/01/12 07:05:17;;;;;;;10.60;5.50;;;;;;;19.34;78.08;101192.81;5072219;28;20504;-72
2021/01/12 07:07:42;;;;;;;14.70;7.63;;;;;;;19.33;78.27;101180.34;5071352;28;20040;-73
2021/01/12 07:10:07;;;;;;;14.15;6.53;;;;;;;19.32;77.92;101179.44;5073051;28;20094;-72
2021/01/12 07:12:33;;;;;;;25.42;6.40;;;;;;;19.36;77.72;101201.72;5072692;28;20037;-72
2021/01/12 07:14:58;;;;;;;9.40;6.25;;;;;;;19.37;78.05;101214.19;5072674;28;20047;-72
2021/01/12 07:17:24;;;;;;;18.25;6.75;;;;;;;19.35;77.91;101206.19;5071177;28;20121;-72
2021/01/12 07:19:49;;;;;;;16.02;6.70;;;;;;;19.34;77.76;101209.78;5072203;28;20033;-72
2021/01/12 07:22:17;;;;;;;9.85;6.25;;;;;;;19.33;77.83;101189.25;5072563;28;20041;-73
2021/01/12 07:24:43;;;;;;;11.70;7.60;;;;;;;19.32;77.78;101187.47;5072300;28;20041;-72
2021/01/12 07:27:08;;;;;;;13.77;6.55;;;;;;;19.32;77.83;101203.56;5088613;28;20054;-71
2021/01/12 07:29:34;;;;;;;13.60;6.57;;;;;;;19.30;77.81;101191.97;5074121;28;20044;-72
2021/01/12 07:31:59;;;;;;;9.35;6.22;;;;;;;19.32;78.03;101208.91;5074215;28;20044;-73
2021/01/12 07:34:25;;;;;;;11.38;7.10;;;;;;;19.34;77.86;101192.81;5092362;28;20048;-72
2021/01/12 07:36:50;;;;;;;10.85;7.03;;;;;;;19.32;78.04;101206.22;5074510;28;20032;-72
2021/01/12 07:39:15;;;;;;;11.23;6.80;;;;;;;19.33;77.97;101191.94;5091449;28;20396;-73
2021/01/12 07:41:41;;;;;;;15.85;6.78;;;;;;;19.35;77.76;101191.94;5074890;28;20112;-73
2021/01/12 07:44:06;;;;;;;19.65;8.18;;;;;;;19.33;78.00;101191.03;5092786;28;20598;-73
2021/01/12 07:46:32;;;;;;;8.35;6.95;;;;;;;19.34;77.75;101190.16;5092086;28;20040;-73
2021/01/12 07:49:26;;;;;;;13.95;6.28;;;;;;;19.40;77.91;101211.47;5084687;28;20182;-73
2021/01/12 07:51:51;;;;;;;27.08;7.80;;;;;;;19.50;77.86;101197.06;5072178;28;20219;-72
2021/01/12 07:54:17;;;;;;;19.60;7.57;;;;;;;19.49;77.49;101188.16;5091765;28;20052;-72
2021/01/12 07:56:42;;;;;;;22.17;8.25;;;;;;;19.42;77.84;101182.91;5092542;28;20063;-73
2021/01/12 07:59:08;;;;;;;16.17;7.28;;;;;;;19.42;78.69;101183.78;5074209;28;20051;-73
2021/01/12 08:01:33;;;;;;;23.40;7.03;;;;;;;19.49;78.77;101192.66;5091515;28;20052;-74
2021/01/12 08:03:58;;;;;;;34.35;8.35;;;;;;;19.54;78.68;101177.41;5073900;28;20044;-73
2021/01/12 08:06:24;;;;;;;48.63;7.10;;;;;;;19.50;78.64;101206.00;5090043;28;20130;-70
2021/01/12 08:08:49;;;;;;;33.72;7.82;;;;;;;19.42;78.57;101205.22;5073314;28;20055;-75
2021/01/12 08:11:16;;;;;;;26.77;7.72;;;;;;;19.37;78.62;101211.50;5072440;28;20036;-71
2021/01/12 08:13:41;;;;;;;16.52;7.13;;;;;;;19.35;78.44;101202.63;5073998;28;20073;-71
2021/01/12 08:16:07;;;;;;;19.13;7.78;;;;;;;19.32;78.24;101203.56;5073443;28;20074;-71
2021/01/12 08:18:32;;;;;;;21.15;8.60;;;;;;;19.31;78.18;101209.81;5073647;28;20032;-74
2021/01/12 08:20:57;;;;;;;17.33;11.02;;;;;;;19.30;78.06;101201.78;5073814;28;20043;-72
2021/01/12 08:23:23;;;;;;;28.15;11.35;;;;;;;19.29;77.68;101200.94;5090701;28;20036;-73
2021/01/12 08:25:48;;;;;;;37.20;12.75;;;;;;;19.28;77.68;101196.47;5073903;28;20036;-73
2021/01/12 08:28:14;;;;;;;31.33;13.02;;;;;;;19.27;77.77;101204.53;5073462;28;20039;-73
2021/01/12 08:30:40;;;;;;;26.67;14.48;;;;;;;19.26;77.60;101192.03;5073491;28;20048;-73
2021/01/12 08:33:05;;;;;;;32.63;14.20;;;;;;;19.25;77.37;101191.16;5064201;28;20044;-73
2021/01/12 08:35:30;;;;;;;25.80;15.95;;;;;;;19.25;77.55;101207.22;5079733;28;20051;-73
2021/01/12 08:37:56;;;;;;;30.27;16.30;;;;;;;19.26;77.44;101219.69;5073316;28;20040;-73
2021/01/12 08:40:21;;;;;;;31.60;16.55;;;;;;;19.24;77.30;101216.13;5091184;28;20047;-72
2021/01/12 08:42:47;;;;;;;28.75;16.98;;;;;;;19.23;77.36;101209.00;5072722;28;20051;-74
2021/01/12 08:45:12;;;;;;;27.48;16.73;;;;;;;19.23;77.31;101184.06;5090630;28;20140;-71
2021/01/12 08:53:09;;;;;;;55.67;28.73;;;;;;;19.51;67.17;101142.63;5090824;27;20933;-61
2021/01/12 08:55:34;;;;;;;67.55;28.73;;;;;;;19.46;66.17;101131.97;5085993;28;20068;-62
2021/01/12 08:58:00;;;;;;;57.78;28.23;;;;;;;19.45;67.14;101116.78;5022830;27;20045;-63
2021/01/12 09:00:25;;;;;;;63.95;29.92;;;;;;;19.36;66.57;101113.38;5042099;28;20069;-62
2021/01/12 09:02:51;;;;;;;60.88;31.25;;;;;;;19.40;65.54;101101.69;5021919;28;20403;-62
2021/01/12 09:05:16;;;;;;;53.13;28.88;;;;;;;19.55;64.93;101108.66;5041146;28;20044;-64
2021/01/12 09:07:41;;;;;;;73.57;29.38;;;;;;;19.48;66.30;101087.31;5061602;28;20091;-61
2021/01/12 09:10:08;;;;;;;65.03;28.88;;;;;;;19.64;64.43;101084.38;5056720;28;20739;-64
2021/01/12 09:12:33;;;;;;;66.25;29.75;;;;;;;19.56;64.38;101078.28;5024965;28;20477;-62
2021/01/12 09:14:58;;;;;;;56.05;28.70;;;;;;;19.58;64.29;101074.66;5040706;28;20120;-64
2021/01/12 09:17:24;;;;;;;50.55;28.45;;;;;;;19.63;66.14;101066.53;5047058;28;20049;-63
2021/01/12 09:19:49;;;;;;;61.85;29.15;;;;;;;19.59;65.65;101072.88;5039580;28;20041;-66
2021/01/12 09:22:18;;;;;;;61.40;28.40;;;;;;;19.56;65.41;101065.75;5044980;28;20043;-61
2021/01/12 09:24:43;;;;;;;70.85;27.95;;;;;;;19.62;65.23;101054.06;5044180;28;20053;-62
2021/01/12 09:27:08;;;;;;;62.75;28.58;;;;;;;19.52;67.02;101050.66;5045944;28;20051;-63
2021/01/12 09:29:34;;;;;;;50.30;28.02;;;;;;;19.55;66.74;101037.22;5043830;28;20049;-63
2021/01/12 09:31:59;;;;;;;52.15;27.60;;;;;;;19.61;66.98;101039.78;5042799;28;20395;-64
2021/01/12 09:34:24;;;;;;;62.65;26.90;;;;;;;19.64;66.29;101020.97;5044739;28;20041;-63
2021/01/12 09:36:50;;;;;;;61.15;26.80;;;;;;;19.61;67.04;101018.38;5040774;28;20524;-63
2021/01/12 09:39:15;;;;;;;57.20;27.42;;;;;;;19.67;66.47;101012.91;5044393;28;20037;-63
2021/01/12 09:41:40;;;;;;;51.55;27.08;;;;;;;19.59;65.51;101012.16;5030621;28;20108;-61
2021/01/12 09:44:06;;;;;;;72.97;28.13;;;;;;;19.55;66.16;101018.47;5023474;28;20052;-61
2021/01/12 09:46:31;;;;;;;49.65;26.45;;;;;;;19.48;66.93;101004.31;5019559;28;20045;-61
2021/01/12 09:48:57;;;;;;;49.80;27.73;;;;;;;19.50;67.33;101014.97;5025111;28;20045;-60
2021/01/12 09:51:22;;;;;;;73.47;28.65;;;;;;;19.48;67.21;101011.47;5025546;28;20049;-59
2021/01/12 09:53:48;;;;;;;60.53;28.45;;;;;;;19.54;66.99;100994.38;5025783;28;20037;-60
2021/01/12 09:56:16;;;;;;;65.43;28.63;;;;;;;19.51;66.72;100984.59;5029664;28;20444;-60
2021/01/12 09:58:42;;;;;;;56.33;28.50;;;;;;;19.47;67.09;100966.84;5008590;28;20034;-59
2021/01/12 10:01:27;;;;;;;62.72;29.05;;;;;;;19.55;67.02;100964.91;5023478;28;20066;-59
2021/01/12 10:03:54;;;;;;;63.13;29.00;;;;;;;19.48;67.97;100952.53;5014440;28;20451;-59
2021/01/12 10:06:20;;;;;;;73.35;28.95;;;;;;;19.52;68.17;100939.97;5012177;28;20058;-59
2021/01/12 10:08:46;;;;;;;66.53;30.65;;;;;;;19.49;68.18;100922.19;5010924;28;20046;-59
2021/01/12 10:11:11;;;;;;;63.72;29.95;;;;;;;19.56;66.72;100922.94;5010882;28;20042;-61
2021/01/12 10:13:37;;;;;;;53.72;29.05;;;;;;;19.54;66.43;100908.69;5011572;28;20041;-61
2021/01/12 10:16:02;;;;;;;55.72;29.92;;;;;;;19.67;66.55;100921.81;5011338;28;20038;-60
2021/01/12 10:18:28;;;;;;;66.85;32.25;;;;;;;19.65;66.66;100918.28;5009186;28;20124;-61
2021/01/12 10:20:53;;;;;;;61.70;29.73;;;;;;;19.65;66.67;100920.06;5009419;28;20037;-60
2021/01/12 10:23:18;;;;;;;63.85;32.22;;;;;;;19.73;67.01;100926.19;5024885;28;20048;-59
2021/01/12 10:25:44;;;;;;;60.33;28.33;;;;;;;19.69;67.36;100925.34;5028535;28;20441;-60
2021/01/12 10:28:10;;;;;;;63.28;30.02;;;;;;;19.66;68.14;100922.72;5028972;28;20053;-61
2021/01/12 10:30:35;;;;;;;58.63;28.73;;;;;;;19.69;67.74;100924.47;5029877;28;20040;-60
2021/01/12 10:33:01;;;;;;;64.50;30.40;;;;;;;19.60;67.01;100922.84;5028732;28;20080;-60
2021/01/12 10:35:26;;;;;;;64.03;28.88;;;;;;;19.57;67.35;100908.63;5029860;28;20045;-60
2021/01/12 10:37:51;;;;;;;55.83;29.20;;;;;;;19.64;66.65;100903.13;5029941;28;20044;-59
2021/01/12 10:40:17;;;;;;;66.30;29.10;;;;;;;19.72;66.85;100897.63;5029561;28;20417;-60
2021/01/12 10:42:43;;;;;;;67.90;28.88;;;;;;;19.71;66.68;100886.00;5029475;28;20061;-59
2021/01/12 10:45:08;;;;;;;56.75;29.90;;;;;;;19.70;65.61;100865.50;5027732;28;21139;-60
2021/01/12 10:47:35;;;;;;;59.80;29.42;;;;;;;19.80;65.91;100858.16;5029523;28;20053;-59
2021/01/12 10:50:00;;;;;;;59.05;32.30;;;;;;;19.79;66.33;100849.25;5030375;28;20045;-60
2021/01/12 10:52:25;;;;;;;75.55;32.63;;;;;;;19.77;66.51;100845.69;5028500;28;20095;-59
2021/01/12 10:54:51;;;;;;;59.22;31.70;;;;;;;19.83;66.71;100855.41;5028154;28;20041;-60
2021/01/12 10:57:16;;;;;;;58.55;31.65;;;;;;;19.80;67.14;100861.72;5028639;28;20041;-60
2021/01/12 10:59:42;;;;;;;71.78;30.25;;;;;;;19.92;66.84;100851.66;5029382;28;20049;-60
2021/01/12 11:02:08;;;;;;;63.08;30.27;;;;;;;19.78;67.00;100857.31;5029102;28;20132;-60
2021/01/12 11:04:33;;;;;;;66.50;33.67;;;;;;;19.58;67.23;100843.44;5024711;28;20112;-61
2021/01/12 11:06:59;;;;;;;66.85;32.70;;;;;;;19.75;67.01;100844.88;5027715;28;20052;-62
2021/01/12 11:09:26;;;;;;;61.83;32.20;;;;;;;19.79;66.75;100837.63;5028641;28;20121;-60
2021/01/12 11:11:51;;;;;;;71.38;30.88;;;;;;;19.83;67.79;100840.22;5029214;28;20461;-60
2021/01/12 11:14:20;;;;;;;58.85;30.55;;;;;;;19.82;67.12;100842.94;5028532;28;20128;-61
2021/01/12 11:16:45;;;;;;;58.05;28.67;;;;;;;19.66;67.83;100836.13;5026787;28;20126;-61